createdAt,value
2023-06-28T00:02:19.023Z,16.20
2023-06-28T00:04:53.656Z,16.17
2023-06-28T00:07:26.511Z,16.14
2023-06-28T00:10:00.043Z,16.08
2023-06-28T00:12:34.310Z,16.05
2023-06-28T00:15:09.021Z,16.02
2023-06-28T00:17:41.877Z,15.97
2023-06-28T00:20:16.194Z,15.96
2023-06-28T00:22:49.042Z,15.94
2023-06-28T00:25:22.507Z,15.83
2023-06-28T00:27:55.369Z,15.92
2023-06-28T00:33:22.231Z,15.89
2023-06-28T00:35:56.751Z,15.89
2023-06-28T00:38:29.703Z,15.89
2023-06-28T00:41:05.159Z,15.91
2023-06-28T00:43:39.923Z,15.93
2023-06-28T00:46:13.080Z,15.95
2023-06-28T00:48:45.943Z,15.96
2023-06-28T00:51:21.571Z,15.93
2023-06-28T00:53:54.863Z,15.91
2023-06-28T00:56:28.738Z,15.90
2023-06-28T00:59:02.958Z,15.89
2023-06-28T01:01:37.213Z,15.92
2023-06-28T01:04:10.922Z,15.90
2023-06-28T01:06:53.432Z,15.91
2023-06-28T01:09:28.185Z,15.90
2023-06-28T01:12:02.246Z,15.87
2023-06-28T01:14:35.175Z,15.84
2023-06-28T01:17:09.296Z,15.79
2023-06-28T01:19:42.551Z,15.80
2023-06-28T01:22:17.124Z,15.80
2023-06-28T01:24:52.823Z,15.79
2023-06-28T01:27:28.281Z,15.78
2023-06-28T01:30:01.392Z,15.74
2023-06-28T01:32:34.136Z,15.75
2023-06-28T01:35:08.471Z,15.73
2023-06-28T01:37:41.331Z,15.71
2023-06-28T01:40:18.766Z,15.68
2023-06-28T01:42:52.196Z,15.63
2023-06-28T01:45:25.328Z,15.66
2023-06-28T01:47:58.339Z,15.65
2023-06-28T01:50:32.150Z,15.67
2023-06-28T01:53:05.799Z,15.70
2023-06-28T01:55:40.652Z,15.70
2023-06-28T01:58:13.102Z,15.69
2023-06-28T02:00:46.389Z,15.61
2023-06-28T02:03:19.558Z,15.66
2023-06-28T02:05:52.332Z,15.66
2023-06-28T02:08:25.043Z,15.68
2023-06-28T02:10:59.237Z,15.68
2023-06-28T02:13:32.592Z,15.65
2023-06-28T02:16:05.872Z,15.69
2023-06-28T02:18:39.517Z,15.69
2023-06-28T02:21:32.227Z,15.59
2023-06-28T02:24:05.719Z,15.70
2023-06-28T02:26:39.960Z,15.72
2023-06-28T02:29:13.540Z,15.72
2023-06-28T02:31:46.123Z,15.77
2023-06-28T02:34:19.479Z,15.79
2023-06-28T02:36:52.115Z,15.81
2023-06-28T02:39:24.952Z,15.82
2023-06-28T02:41:59.097Z,15.83
2023-06-28T02:44:32.406Z,15.73
2023-06-28T02:47:06.090Z,15.85
2023-06-28T02:49:39.413Z,15.86
2023-06-28T02:52:12.811Z,15.85
2023-06-28T02:54:46.439Z,15.84
2023-06-28T02:57:20.898Z,15.85
2023-06-28T03:00:00.050Z,15.85
2023-06-28T03:02:33.536Z,15.85
2023-06-28T03:05:07.959Z,15.80
2023-06-28T03:07:40.604Z,15.80
2023-06-28T03:10:14.323Z,15.80
2023-06-28T03:12:49.603Z,15.78
2023-06-28T03:15:23.053Z,15.80
2023-06-28T03:17:56.200Z,15.80
2023-06-28T03:20:29.585Z,15.79
2023-06-28T03:23:03.992Z,15.74
2023-06-28T03:25:36.959Z,15.73
2023-06-28T03:28:11.284Z,15.73
2023-06-28T03:30:44.870Z,15.72
2023-06-28T03:33:18.452Z,15.73
2023-06-28T03:35:51.650Z,15.70
2023-06-28T03:38:24.077Z,15.71
2023-06-28T03:40:57.485Z,15.62
2023-06-28T03:43:31.633Z,15.75
2023-06-28T03:46:04.608Z,15.75
2023-06-28T03:48:37.630Z,15.72
2023-06-28T03:51:11.096Z,15.72
2023-06-28T03:53:44.567Z,15.73
2023-06-28T03:56:18.057Z,15.75
2023-06-28T03:58:52.186Z,15.78
2023-06-28T04:01:25.113Z,15.71
2023-06-28T04:03:57.868Z,15.83
2023-06-28T04:06:31.135Z,15.83
2023-06-28T04:09:05.487Z,15.87
2023-06-28T04:11:38.910Z,15.91
2023-06-28T04:14:12.821Z,15.94
2023-06-28T04:16:45.673Z,15.98
2023-06-28T04:19:18.775Z,16.01
2023-06-28T04:21:52.181Z,16.00
2023-06-28T04:24:25.693Z,16.00
2023-06-28T04:27:01.950Z,16.04
2023-06-28T04:29:36.165Z,16.07
2023-06-28T04:32:23.255Z,15.90
2023-06-28T04:34:57.403Z,16.09
2023-06-28T04:37:32.989Z,16.10
2023-06-28T04:40:07.348Z,16.14
2023-06-28T04:42:40.593Z,16.14
2023-06-28T04:45:15.539Z,16.20
2023-06-28T04:47:48.083Z,16.25
2023-06-28T04:50:21.406Z,16.27
2023-06-28T04:52:54.090Z,16.33
2023-06-28T04:55:27.219Z,16.34
2023-06-28T04:58:01.564Z,16.35
2023-06-28T05:00:36.334Z,16.36
2023-06-28T05:03:12.079Z,16.38
2023-06-28T05:05:45.307Z,16.43
2023-06-28T05:08:17.905Z,16.49
2023-06-28T05:10:51.524Z,16.55
2023-06-28T05:13:24.485Z,16.60
2023-06-28T05:15:58.897Z,16.62
2023-06-28T05:18:31.566Z,16.68
2023-06-28T05:21:04.828Z,16.65
2023-06-28T05:23:37.431Z,16.67
2023-06-28T05:26:10.270Z,16.65
2023-06-28T05:28:43.110Z,16.66
2023-06-28T05:31:17.370Z,16.65
2023-06-28T05:33:50.176Z,16.65
2023-06-28T05:36:23.797Z,16.64
2023-06-28T05:38:57.468Z,16.64
2023-06-28T05:41:30.325Z,16.64
2023-06-28T05:44:03.256Z,16.62
2023-06-28T05:46:38.951Z,16.60
2023-06-28T05:49:12.300Z,16.55
2023-06-28T05:51:45.744Z,16.57
2023-06-28T05:54:18.563Z,16.55
2023-06-28T05:56:51.865Z,16.51
2023-06-28T05:59:24.323Z,16.49
2023-06-28T06:01:58.928Z,16.55
2023-06-28T06:04:32.744Z,16.58
2023-06-28T06:07:06.478Z,16.57
2023-06-28T06:09:39.046Z,16.47
2023-06-28T06:12:12.308Z,16.47
2023-06-28T06:14:45.190Z,16.56
2023-06-28T06:17:20.205Z,16.56
2023-06-28T06:19:52.706Z,16.59
2023-06-28T06:22:25.625Z,16.49
2023-06-28T06:24:58.531Z,16.60
2023-06-28T06:27:31.447Z,16.60
2023-06-28T06:30:05.087Z,16.58
2023-06-28T06:32:42.206Z,16.52
2023-06-28T06:35:15.925Z,16.47
2023-06-28T06:37:49.241Z,16.58
2023-06-28T06:40:22.154Z,16.52
2023-06-28T06:42:55.346Z,16.53
2023-06-28T06:45:27.883Z,16.54
2023-06-28T06:48:02.568Z,16.56
2023-06-28T06:50:35.167Z,16.59
2023-06-28T06:53:09.630Z,16.63
2023-06-28T06:55:42.476Z,16.54
2023-06-28T06:58:15.422Z,16.64
2023-06-28T07:00:48.368Z,16.53
2023-06-28T07:03:22.388Z,16.62
2023-06-28T07:05:55.789Z,16.59
2023-06-28T07:08:28.654Z,16.61
2023-06-28T07:11:01.263Z,16.62
2023-06-28T07:13:34.705Z,16.64
2023-06-28T07:16:07.314Z,16.63
2023-06-28T07:18:41.827Z,16.67
2023-06-28T07:21:16.140Z,16.67
2023-06-28T07:23:49.177Z,16.69
2023-06-28T07:26:21.926Z,16.71
2023-06-28T07:28:56.220Z,16.61
2023-06-28T07:31:29.112Z,16.71
2023-06-28T07:34:06.232Z,16.66
2023-06-28T07:36:39.209Z,16.70
2023-06-28T07:39:12.930Z,16.69
2023-06-28T07:41:45.953Z,16.73
2023-06-28T07:44:18.549Z,16.73
2023-06-28T07:46:51.316Z,16.72
2023-06-28T07:49:25.912Z,16.72
2023-06-28T07:51:59.691Z,16.73
2023-06-28T07:54:34.841Z,16.72
2023-06-28T07:57:10.513Z,16.76
2023-06-28T07:59:44.157Z,16.74
2023-06-28T08:02:17.285Z,16.73
2023-06-28T08:04:51.637Z,16.78
2023-06-28T08:07:24.961Z,16.73
2023-06-28T08:09:57.532Z,16.83
2023-06-28T08:12:30.318Z,16.84
2023-06-28T08:15:02.868Z,16.88
2023-06-28T08:17:39.165Z,16.90
2023-06-28T08:20:13.385Z,16.85
2023-06-28T08:22:46.346Z,16.96
2023-06-28T08:25:19.021Z,16.82
2023-06-28T08:27:52.836Z,17.04
2023-06-28T08:30:25.616Z,17.05
2023-06-28T08:32:59.858Z,17.06
2023-06-28T08:35:34.283Z,17.05
2023-06-28T08:38:07.599Z,17.02
2023-06-28T08:40:40.126Z,17.04
2023-06-28T08:43:16.709Z,16.95
2023-06-28T08:45:50.752Z,16.99
2023-06-28T08:48:29.889Z,17.03
2023-06-28T08:51:07.503Z,17.01
2023-06-28T08:53:45.401Z,17.04
2023-06-28T08:56:18.765Z,17.04
2023-06-28T08:58:53.021Z,17.05
2023-06-28T09:01:25.840Z,17.07
2023-06-28T09:03:59.121Z,17.08
2023-06-28T09:06:34.859Z,17.01
2023-06-28T09:09:07.847Z,17.10
2023-06-28T09:11:40.859Z,17.10
2023-06-28T09:14:14.262Z,17.13
2023-06-28T09:16:47.053Z,17.15
2023-06-28T09:19:20.181Z,17.16
2023-06-28T09:22:03.026Z,17.15
2023-06-28T09:24:37.256Z,17.08
2023-06-28T09:27:12.662Z,17.15
2023-06-28T09:29:45.808Z,17.13
2023-06-28T09:32:20.667Z,17.13
2023-06-28T09:34:53.778Z,17.11
2023-06-28T09:37:31.485Z,17.11
2023-06-28T09:40:07.612Z,17.15
2023-06-28T09:42:45.301Z,17.14
2023-06-28T09:45:29.350Z,17.15
2023-06-28T09:48:03.416Z,17.12
2023-06-28T09:50:40.884Z,17.09
2023-06-28T09:53:17.430Z,17.10
2023-06-28T09:55:52.449Z,17.06
2023-06-28T09:58:28.768Z,17.19
2023-06-28T10:01:03.463Z,17.14
2023-06-28T10:03:36.662Z,17.26
2023-06-28T10:06:11.022Z,17.29
2023-06-28T10:08:46.470Z,17.21
2023-06-28T10:11:19.759Z,17.32
2023-06-28T10:13:53.411Z,17.22
2023-06-28T10:16:31.495Z,17.30
2023-06-28T10:19:04.290Z,17.29
2023-06-28T10:21:37.611Z,17.28
2023-06-28T10:24:12.440Z,17.26
2023-06-28T10:26:45.397Z,17.32
2023-06-28T10:29:20.289Z,17.36
2023-06-28T10:31:57.151Z,17.41
2023-06-28T10:34:30.046Z,17.36
2023-06-28T10:37:04.282Z,17.48
2023-06-28T10:39:40.070Z,17.50
2023-06-28T10:42:13.282Z,17.45
2023-06-28T10:44:55.352Z,17.60
2023-06-28T10:47:28.292Z,17.59
2023-06-28T10:50:10.091Z,17.64
2023-06-28T10:52:47.797Z,17.64
2023-06-28T10:55:29.386Z,17.62
2023-06-28T10:58:06.765Z,17.58
2023-06-28T11:00:44.352Z,17.56
2023-06-28T11:03:17.440Z,17.56
2023-06-28T11:05:55.396Z,17.54
2023-06-28T11:08:38.174Z,17.57
2023-06-28T11:11:23.787Z,17.56
2023-06-28T11:13:56.396Z,17.57
2023-06-28T11:16:29.631Z,17.55
2023-06-28T11:19:15.338Z,17.62
2023-06-28T11:21:50.519Z,17.56
2023-06-28T11:24:37.550Z,17.56
2023-06-28T11:27:13.297Z,17.58
2023-06-28T11:29:58.120Z,17.71
2023-06-28T11:32:35.077Z,17.73
2023-06-28T11:35:09.268Z,17.73
2023-06-28T11:37:43.055Z,17.72
2023-06-28T11:40:16.516Z,17.62
2023-06-28T11:42:52.875Z,17.64
2023-06-28T11:45:26.101Z,17.61
2023-06-28T11:47:58.662Z,17.59
2023-06-28T11:50:31.685Z,17.55
2023-06-28T11:53:04.328Z,17.49
2023-06-28T11:55:37.210Z,17.40
2023-06-28T11:58:11.449Z,17.40
2023-06-28T12:00:44.760Z,17.33
2023-06-28T12:03:17.343Z,17.37
2023-06-28T12:05:54.278Z,17.37
2023-06-28T12:08:27.084Z,17.35
2023-06-28T12:11:00.454Z,17.29
2023-06-28T12:13:35.012Z,17.31
2023-06-28T12:16:16.353Z,17.18
2023-06-28T12:18:59.207Z,17.21
2023-06-28T12:21:34.290Z,17.16
2023-06-28T12:24:14.586Z,17.17
2023-06-28T12:26:50.110Z,17.18
2023-06-28T12:29:25.155Z,17.17
2023-06-28T12:32:04.343Z,17.22
2023-06-28T12:34:39.093Z,17.25
2023-06-28T12:37:12.964Z,17.31
2023-06-28T12:39:46.133Z,17.34
2023-06-28T12:42:21.327Z,17.33
2023-06-28T12:44:57.450Z,17.35
2023-06-28T12:47:32.237Z,17.31
2023-06-28T12:50:05.966Z,17.24
2023-06-28T12:52:38.790Z,17.31
2023-06-28T12:55:13.629Z,17.29
2023-06-28T12:57:46.333Z,17.19
2023-06-28T13:00:21.270Z,17.29
2023-06-28T13:02:54.246Z,17.25
2023-06-28T13:05:27.115Z,17.26
2023-06-28T13:08:02.204Z,17.21
2023-06-28T13:10:35.390Z,17.24
2023-06-28T13:13:08.106Z,17.26
2023-06-28T13:15:42.659Z,17.28
2023-06-28T13:18:15.805Z,17.28
2023-06-28T13:20:48.762Z,17.25
2023-06-28T13:23:21.380Z,17.24
2023-06-28T13:25:55.091Z,17.24
2023-06-28T13:28:28.201Z,17.00
2023-06-28T13:31:03.044Z,17.25
2023-06-28T13:33:35.766Z,17.28
2023-06-28T13:36:10.822Z,17.27
2023-06-28T13:38:44.340Z,17.26
2023-06-28T13:41:17.321Z,17.25
2023-06-28T13:43:50.006Z,17.25
2023-06-28T13:46:24.597Z,17.25
2023-06-28T13:48:57.246Z,17.26
2023-06-28T13:51:30.074Z,17.26
2023-06-28T13:54:03.856Z,17.28
2023-06-28T13:56:37.304Z,17.31
2023-06-28T13:59:09.946Z,17.25
2023-06-28T14:01:44.522Z,17.33
2023-06-28T14:04:17.553Z,17.36
2023-06-28T14:06:50.754Z,17.39
2023-06-28T14:09:23.283Z,17.41
2023-06-28T14:11:56.083Z,17.42
2023-06-28T14:14:28.941Z,17.42
2023-06-28T14:17:06.028Z,17.40
2023-06-28T14:19:38.568Z,17.30
2023-06-28T14:22:11.817Z,17.35
2023-06-28T14:24:44.634Z,17.32
2023-06-28T14:27:17.952Z,17.30
2023-06-28T14:29:50.899Z,17.27
2023-06-28T14:32:25.238Z,17.30
2023-06-28T14:34:57.922Z,17.21
2023-06-28T14:37:31.058Z,17.29
2023-06-28T14:40:04.054Z,17.31
2023-06-28T14:42:37.649Z,17.35
2023-06-28T14:45:13.943Z,17.34
2023-06-28T14:47:48.869Z,17.42
2023-06-28T14:50:22.590Z,17.41
2023-06-28T14:52:55.339Z,17.42
2023-06-28T14:55:28.170Z,17.40
2023-06-28T14:58:01.326Z,17.39
2023-06-28T15:00:33.818Z,17.39
2023-06-28T15:03:11.457Z,17.39
2023-06-28T15:05:45.343Z,17.30
2023-06-28T15:08:18.625Z,17.38
2023-06-28T15:10:51.892Z,17.37
2023-06-28T15:13:24.927Z,17.35
2023-06-28T15:15:57.980Z,17.33
2023-06-28T15:18:32.208Z,17.31
2023-06-28T15:21:05.461Z,17.26
2023-06-28T15:23:38.091Z,17.28
2023-06-28T15:26:11.181Z,17.27
2023-06-28T15:28:44.647Z,17.26
2023-06-28T15:31:17.627Z,17.25
2023-06-28T15:33:52.170Z,17.23
2023-06-28T15:36:24.939Z,17.22
2023-06-28T15:38:58.203Z,17.19
2023-06-28T15:41:30.994Z,17.21
2023-06-28T15:44:03.827Z,17.20
2023-06-28T15:46:36.498Z,17.19
2023-06-28T15:49:10.825Z,17.19
2023-06-28T15:51:43.657Z,17.17
2023-06-28T15:54:16.548Z,17.20
2023-06-28T15:56:49.451Z,17.13
2023-06-28T15:59:22.041Z,17.19
2023-06-28T16:01:54.931Z,17.07
2023-06-28T16:04:30.064Z,17.13
2023-06-28T16:07:03.609Z,17.12
2023-06-28T16:09:36.509Z,17.08
2023-06-28T16:12:10.345Z,17.03
2023-06-28T16:14:43.143Z,17.00
2023-06-28T16:17:16.966Z,16.95
2023-06-28T16:19:51.337Z,16.90
2023-06-28T16:22:24.207Z,16.82
2023-06-28T16:24:57.305Z,16.80
2023-06-28T16:27:30.214Z,16.78
2023-06-28T16:30:03.048Z,16.73
2023-06-28T16:32:39.459Z,16.70
2023-06-28T16:35:14.754Z,16.63
2023-06-28T16:37:47.519Z,16.59
2023-06-28T16:40:20.730Z,16.56
2023-06-28T16:42:53.526Z,16.54
2023-06-28T16:45:26.530Z,16.56
2023-06-28T16:47:59.472Z,16.53
2023-06-28T16:50:34.083Z,16.52
2023-06-28T16:53:07.121Z,16.50
2023-06-28T16:55:40.276Z,16.46
2023-06-28T16:58:12.910Z,16.38
2023-06-28T17:00:46.067Z,16.38
2023-06-28T17:03:19.501Z,16.36
2023-06-28T17:05:53.617Z,16.38
2023-06-28T17:08:26.964Z,16.34
2023-06-28T17:10:59.739Z,16.31
2023-06-28T17:13:32.641Z,16.29
2023-06-28T17:16:06.146Z,16.28
2023-06-28T17:18:39.557Z,16.26
2023-06-28T17:21:13.855Z,16.26
2023-06-28T17:23:46.686Z,16.25
2023-06-28T17:26:19.309Z,16.25
2023-06-28T17:28:52.261Z,16.26
2023-06-28T17:31:25.027Z,16.26
2023-06-28T17:33:58.000Z,16.28
2023-06-28T17:36:33.227Z,16.30
2023-06-28T17:39:06.201Z,16.30
2023-06-28T17:41:38.837Z,16.30
2023-06-28T17:44:11.855Z,16.32
2023-06-28T17:46:44.769Z,16.31
2023-06-28T17:49:17.899Z,16.33
2023-06-28T17:51:52.165Z,16.39
2023-06-28T17:54:25.235Z,16.42
2023-06-28T17:57:00.422Z,16.43
2023-06-28T17:59:33.882Z,16.49
2023-06-28T18:02:07.097Z,16.49
2023-06-28T18:04:39.852Z,16.53
2023-06-28T18:07:14.679Z,16.49
2023-06-28T18:09:47.885Z,16.59
2023-06-28T18:12:20.851Z,16.61
2023-06-28T18:14:53.863Z,16.48
2023-06-28T18:17:26.650Z,16.63
2023-06-28T18:20:00.003Z,16.64
2023-06-28T18:22:34.774Z,16.63
2023-06-28T18:25:07.805Z,16.61
2023-06-28T18:27:41.606Z,16.60
2023-06-28T18:30:14.508Z,16.59
2023-06-28T18:32:48.677Z,16.57
2023-06-28T18:35:21.594Z,16.55
2023-06-28T18:37:56.320Z,16.54
2023-06-28T18:40:28.847Z,16.51
2023-06-28T18:43:01.740Z,16.53
2023-06-28T18:45:34.331Z,16.54
2023-06-28T18:48:11.213Z,16.43
2023-06-28T18:50:58.679Z,16.54
2023-06-28T18:53:33.345Z,16.53
2023-06-28T18:56:06.621Z,16.54
2023-06-28T18:58:39.274Z,16.53
2023-06-28T19:01:11.997Z,16.54
2023-06-28T19:03:45.231Z,16.51
2023-06-28T19:06:18.231Z,16.45
2023-06-28T19:08:52.461Z,16.53
2023-06-28T19:11:25.941Z,16.52
2023-06-28T19:13:58.766Z,16.50
2023-06-28T19:16:31.664Z,16.51
2023-06-28T19:19:04.206Z,16.46
2023-06-28T19:21:37.393Z,16.48
2023-06-28T19:24:13.149Z,16.44
2023-06-28T19:26:46.402Z,16.38
2023-06-28T19:29:19.205Z,16.35
2023-06-28T19:31:52.490Z,16.37
2023-06-28T19:34:24.970Z,16.32
2023-06-28T19:36:58.468Z,16.33
2023-06-28T19:39:32.538Z,16.33
2023-06-28T19:42:06.050Z,16.34
2023-06-28T19:44:38.598Z,16.34
2023-06-28T19:47:11.838Z,16.35
2023-06-28T19:49:44.586Z,16.35
2023-06-28T19:52:18.054Z,16.33
2023-06-28T19:54:52.275Z,16.35
2023-06-28T19:57:25.558Z,16.32
2023-06-28T19:59:58.229Z,16.32
2023-06-28T20:02:31.166Z,16.38
2023-06-28T20:05:03.952Z,16.39
2023-06-28T20:07:38.518Z,16.41
2023-06-28T20:10:15.424Z,16.41
2023-06-28T20:12:48.735Z,16.44
2023-06-28T20:15:21.335Z,16.38
2023-06-28T20:17:55.153Z,16.44
2023-06-28T20:20:28.389Z,16.34
2023-06-28T20:23:00.936Z,16.39
2023-06-28T20:25:35.496Z,16.42
2023-06-28T20:28:12.072Z,16.40
2023-06-28T20:30:45.730Z,16.40
2023-06-28T20:33:18.548Z,16.39
2023-06-28T20:35:51.952Z,16.37
2023-06-28T20:38:26.964Z,16.35
2023-06-28T20:41:01.363Z,16.38
2023-06-28T20:43:36.960Z,16.39
2023-06-28T20:46:10.342Z,16.35
2023-06-28T20:48:44.584Z,16.38
2023-06-28T20:51:17.540Z,16.39
2023-06-28T20:53:50.170Z,16.40
2023-06-28T20:56:24.878Z,16.42
2023-06-28T20:58:57.451Z,16.41
2023-06-28T21:01:30.478Z,16.41
2023-06-28T21:04:03.133Z,16.44
2023-06-28T21:06:36.358Z,16.44
2023-06-28T21:09:08.943Z,16.39
2023-06-28T21:11:43.188Z,16.44
2023-06-28T21:14:16.330Z,16.43
2023-06-28T21:16:49.183Z,16.44
2023-06-28T21:19:22.138Z,16.42
2023-06-28T21:21:55.084Z,16.43
2023-06-28T21:24:27.995Z,16.40
2023-06-28T21:27:02.616Z,16.41
2023-06-28T21:29:35.214Z,16.41
2023-06-28T21:32:09.791Z,16.40
2023-06-28T21:34:42.922Z,16.36
2023-06-28T21:37:15.990Z,16.45
2023-06-28T21:39:48.690Z,16.45
2023-06-28T21:42:23.394Z,16.47
2023-06-28T21:44:56.254Z,16.48
2023-06-28T21:47:29.730Z,16.49
2023-06-28T21:50:02.328Z,16.51
2023-06-28T21:52:36.919Z,16.52
2023-06-28T21:55:10.097Z,16.52
2023-06-28T21:57:44.500Z,16.52
2023-06-28T22:00:25.497Z,16.44
2023-06-28T22:02:59.019Z,16.52
2023-06-28T22:05:31.833Z,16.52
2023-06-28T22:08:05.626Z,16.51
2023-06-28T22:10:38.631Z,16.52
2023-06-28T22:13:13.877Z,16.51
2023-06-28T22:15:47.709Z,16.50
2023-06-28T22:18:21.394Z,16.49
2023-06-28T22:20:54.268Z,16.52
2023-06-28T22:23:27.564Z,16.53
2023-06-28T22:26:00.484Z,16.54
2023-06-28T22:28:34.428Z,16.54
2023-06-28T22:31:07.463Z,16.56
2023-06-28T22:33:40.313Z,16.55
2023-06-28T22:36:13.219Z,16.56
2023-06-28T22:38:52.052Z,16.54
2023-06-28T22:41:26.262Z,16.57
2023-06-28T22:44:00.462Z,16.56
2023-06-28T22:46:33.869Z,16.56
2023-06-28T22:49:06.843Z,16.59
2023-06-28T22:51:43.123Z,16.53
2023-06-28T22:54:15.949Z,16.60
2023-06-28T22:56:48.897Z,16.60
2023-06-28T22:59:23.418Z,16.61
2023-06-28T23:01:56.725Z,16.61
2023-06-28T23:04:29.351Z,16.61
2023-06-28T23:07:05.506Z,16.62
2023-06-28T23:09:38.292Z,16.59
2023-06-28T23:12:15.748Z,16.55
2023-06-28T23:14:53.682Z,16.58
2023-06-28T23:17:27.395Z,16.60
2023-06-28T23:20:00.865Z,16.59
2023-06-28T23:22:34.635Z,16.57
2023-06-28T23:25:10.648Z,16.58
2023-06-28T23:27:45.678Z,16.56
2023-06-28T23:30:20.461Z,16.59
2023-06-28T23:32:53.669Z,16.58
2023-06-28T23:35:28.254Z,16.54
2023-06-28T23:38:02.825Z,16.52
2023-06-28T23:40:36.126Z,16.53
2023-06-28T23:43:09.790Z,16.52
2023-06-28T23:45:44.148Z,16.49
2023-06-28T23:48:18.123Z,16.52
2023-06-28T23:50:52.761Z,16.49
2023-06-28T23:53:26.099Z,16.46
2023-06-28T23:55:58.756Z,16.44
2023-06-28T23:58:32.066Z,16.32
